sensor_id;sensor_type;location;lat;lon;timestamp;temperature;humidity
30893;DHT22;17595;50.884;4.346;2023-10-08T00:01:15;18.60;99.90
30893;DHT22;17595;50.884;4.346;2023-10-08T00:03:42;18.60;99.90
30893;DHT22;17595;50.884;4.346;2023-10-08T00:06:14;18.50;99.90
30893;DHT22;17595;50.884;4.346;2023-10-08T00:08:40;18.50;99.90
30893;DHT22;17595;50.884;4.346;2023-10-08T00:11:06;18.40;99.90
30893;DHT22;17595;50.884;4.346;2023-10-08T00:13:33;18.50;99.90
30893;DHT22;17595;50.884;4.346;2023-10-08T00:16:13;18.30;99.90
30893;DHT22;17595;50.884;4.346;2023-10-08T00:18:44;18.30;99.90
30893;DHT22;17595;50.884;4.346;2023-10-08T00:21:17;18.40;99.90
30893;DHT22;17595;50.884;4.346;2023-10-08T00:23:46;18.50;99.90
30893;DHT22;17595;50.884;4.346;2023-10-08T00:26:21;18.50;99.90
30893;DHT22;17595;50.884;4.346;2023-10-08T00:28:57;18.50;99.90
30893;DHT22;17595;50.884;4.346;2023-10-08T00:31:25;18.50;99.90
30893;DHT22;17595;50.884;4.346;2023-10-08T00:33:56;18.50;99.90
30893;DHT22;17595;50.884;4.346;2023-10-08T00:36:22;18.50;99.90
30893;DHT22;17595;50.884;4.346;2023-10-08T00:38:50;18.50;99.90
30893;DHT22;17595;50.884;4.346;2023-10-08T00:41:24;18.50;99.90
30893;DHT22;17595;50.884;4.346;2023-10-08T00:43:54;18.50;99.90
30893;DHT22;17595;50.884;4.346;2023-10-08T00:46:25;18.40;99.90
30893;DHT22;17595;50.884;4.346;2023-10-08T00:48:54;18.40;99.90
30893;DHT22;17595;50.884;4.346;2023-10-08T00:51:24;18.40;99.90
30893;DHT22;17595;50.884;4.346;2023-10-08T00:54:01;18.40;99.90
30893;DHT22;17595;50.884;4.346;2023-10-08T00:56:35;18.30;99.90
30893;DHT22;17595;50.884;4.346;2023-10-08T00:59:23;18.30;99.90
30893;DHT22;17595;50.884;4.346;2023-10-08T01:01:51;18.30;99.90
30893;DHT22;17595;50.884;4.346;2023-10-08T01:04:21;18.20;99.90
30893;DHT22;17595;50.884;4.346;2023-10-08T01:06:58;18.20;99.90
30893;DHT22;17595;50.884;4.346;2023-10-08T01:09:43;18.20;99.90
30893;DHT22;17595;50.884;4.346;2023-10-08T01:12:22;18.20;99.90
30893;DHT22;17595;50.884;4.346;2023-10-08T01:14:48;18.20;99.90
30893;DHT22;17595;50.884;4.346;2023-10-08T01:17:16;18.20;99.90
30893;DHT22;17595;50.884;4.346;2023-10-08T01:19:42;18.20;99.90
30893;DHT22;17595;50.884;4.346;2023-10-08T01:22:14;18.10;99.90
30893;DHT22;17595;50.884;4.346;2023-10-08T01:24:46;18.10;99.90
30893;DHT22;17595;50.884;4.346;2023-10-08T01:27:14;18.10;99.90
30893;DHT22;17595;50.884;4.346;2023-10-08T01:29:46;18.10;99.90
30893;DHT22;17595;50.884;4.346;2023-10-08T01:32:12;18.10;99.90
30893;DHT22;17595;50.884;4.346;2023-10-08T01:34:41;18.10;99.90
30893;DHT22;17595;50.884;4.346;2023-10-08T01:37:14;18.10;99.90
30893;DHT22;17595;50.884;4.346;2023-10-08T01:39:39;18.00;99.90
30893;DHT22;17595;50.884;4.346;2023-10-08T01:42:08;18.00;99.90
30893;DHT22;17595;50.884;4.346;2023-10-08T01:44:43;18.00;99.90
30893;DHT22;17595;50.884;4.346;2023-10-08T01:47:12;18.10;99.90
30893;DHT22;17595;50.884;4.346;2023-10-08T01:49:38;18.00;99.90
30893;DHT22;17595;50.884;4.346;2023-10-08T01:52:05;18.00;99.90
30893;DHT22;17595;50.884;4.346;2023-10-08T01:54:33;18.10;99.90
30893;DHT22;17595;50.884;4.346;2023-10-08T01:57:01;18.00;99.90
30893;DHT22;17595;50.884;4.346;2023-10-08T01:59:31;18.00;99.90
30893;DHT22;17595;50.884;4.346;2023-10-08T02:01:58;18.00;99.90
30893;DHT22;17595;50.884;4.346;2023-10-08T02:04:23;18.10;99.90
30893;DHT22;17595;50.884;4.346;2023-10-08T02:06:49;18.00;99.90
30893;DHT22;17595;50.884;4.346;2023-10-08T02:09:15;18.00;99.90
30893;DHT22;17595;50.884;4.346;2023-10-08T02:11:45;18.00;99.90
30893;DHT22;17595;50.884;4.346;2023-10-08T02:14:11;18.00;99.90
30893;DHT22;17595;50.884;4.346;2023-10-08T02:16:40;17.90;99.90
30893;DHT22;17595;50.884;4.346;2023-10-08T02:19:07;18.00;99.90
30893;DHT22;17595;50.884;4.346;2023-10-08T02:21:39;18.00;99.90
30893;DHT22;17595;50.884;4.346;2023-10-08T02:24:06;17.90;99.90
30893;DHT22;17595;50.884;4.346;2023-10-08T02:26:33;17.90;99.90
30893;DHT22;17595;50.884;4.346;2023-10-08T02:29:00;17.90;99.90
30893;DHT22;17595;50.884;4.346;2023-10-08T02:31:26;17.90;99.90
30893;DHT22;17595;50.884;4.346;2023-10-08T02:33:53;17.90;99.90
30893;DHT22;17595;50.884;4.346;2023-10-08T02:36:19;17.80;99.90
30893;DHT22;17595;50.884;4.346;2023-10-08T02:38:45;17.90;99.90
30893;DHT22;17595;50.884;4.346;2023-10-08T02:41:16;17.80;99.90
30893;DHT22;17595;50.884;4.346;2023-10-08T02:43:42;17.80;99.90
30893;DHT22;17595;50.884;4.346;2023-10-08T02:46:10;17.90;99.90
30893;DHT22;17595;50.884;4.346;2023-10-08T02:48:41;17.90;99.90
30893;DHT22;17595;50.884;4.346;2023-10-08T02:51:06;17.90;99.90
30893;DHT22;17595;50.884;4.346;2023-10-08T02:53:41;17.90;99.90
30893;DHT22;17595;50.884;4.346;2023-10-08T02:56:10;17.90;99.90
30893;DHT22;17595;50.884;4.346;2023-10-08T02:58:40;17.80;99.90
30893;DHT22;17595;50.884;4.346;2023-10-08T03:01:06;17.90;99.90
30893;DHT22;17595;50.884;4.346;2023-10-08T03:03:32;17.90;99.90
30893;DHT22;17595;50.884;4.346;2023-10-08T03:05:58;17.90;99.90
30893;DHT22;17595;50.884;4.346;2023-10-08T03:08:24;17.80;99.90
30893;DHT22;17595;50.884;4.346;2023-10-08T03:10:51;17.80;99.90
30893;DHT22;17595;50.884;4.346;2023-10-08T03:13:28;17.80;99.90
30893;DHT22;17595;50.884;4.346;2023-10-08T03:15:54;17.80;99.90
30893;DHT22;17595;50.884;4.346;2023-10-08T03:18:25;17.80;99.90
30893;DHT22;17595;50.884;4.346;2023-10-08T03:20:59;17.70;99.90
30893;DHT22;17595;50.884;4.346;2023-10-08T03:23:29;17.70;99.90
30893;DHT22;17595;50.884;4.346;2023-10-08T03:26:03;17.90;99.90
30893;DHT22;17595;50.884;4.346;2023-10-08T03:28:54;17.90;99.90
30893;DHT22;17595;50.884;4.346;2023-10-08T03:31:23;17.90;99.90
30893;DHT22;17595;50.884;4.346;2023-10-08T03:34:09;17.90;99.90
30893;DHT22;17595;50.884;4.346;2023-10-08T03:36:39;17.90;99.90
30893;DHT22;17595;50.884;4.346;2023-10-08T03:39:10;17.90;99.90
30893;DHT22;17595;50.884;4.346;2023-10-08T03:41:42;17.80;99.90
30893;DHT22;17595;50.884;4.346;2023-10-08T03:44:17;17.90;99.90
30893;DHT22;17595;50.884;4.346;2023-10-08T03:46:43;17.90;99.90
30893;DHT22;17595;50.884;4.346;2023-10-08T03:49:10;17.90;99.90
30893;DHT22;17595;50.884;4.346;2023-10-08T03:51:42;17.80;99.90
30893;DHT22;17595;50.884;4.346;2023-10-08T03:54:07;17.80;99.90
30893;DHT22;17595;50.884;4.346;2023-10-08T03:56:43;17.80;99.90
30893;DHT22;17595;50.884;4.346;2023-10-08T03:59:18;17.90;99.90
30893;DHT22;17595;50.884;4.346;2023-10-08T04:01:58;17.80;99.90
30893;DHT22;17595;50.884;4.346;2023-10-08T04:04:43;17.80;99.90
30893;DHT22;17595;50.884;4.346;2023-10-08T04:07:40;17.70;99.90
30893;DHT22;17595;50.884;4.346;2023-10-08T04:10:31;17.70;99.90
30893;DHT22;17595;50.884;4.346;2023-10-08T04:13:03;17.60;99.90
30893;DHT22;17595;50.884;4.346;2023-10-08T04:15:29;17.60;99.90
30893;DHT22;17595;50.884;4.346;2023-10-08T04:17:55;17.60;99.90
30893;DHT22;17595;50.884;4.346;2023-10-08T04:20:22;17.50;99.90
30893;DHT22;17595;50.884;4.346;2023-10-08T04:22:59;17.60;99.90
30893;DHT22;17595;50.884;4.346;2023-10-08T04:25:26;17.40;99.90
30893;DHT22;17595;50.884;4.346;2023-10-08T04:27:54;17.40;99.90
30893;DHT22;17595;50.884;4.346;2023-10-08T04:30:24;17.50;99.90
30893;DHT22;17595;50.884;4.346;2023-10-08T04:32:57;17.50;99.90
30893;DHT22;17595;50.884;4.346;2023-10-08T04:35:23;17.40;99.90
30893;DHT22;17595;50.884;4.346;2023-10-08T04:37:52;17.40;99.90
30893;DHT22;17595;50.884;4.346;2023-10-08T04:40:18;17.30;99.90
30893;DHT22;17595;50.884;4.346;2023-10-08T04:42:48;17.30;99.90
30893;DHT22;17595;50.884;4.346;2023-10-08T04:45:14;17.20;99.90
30893;DHT22;17595;50.884;4.346;2023-10-08T04:47:40;17.20;99.90
30893;DHT22;17595;50.884;4.346;2023-10-08T04:50:10;17.20;99.90
30893;DHT22;17595;50.884;4.346;2023-10-08T04:52:43;17.20;99.90
30893;DHT22;17595;50.884;4.346;2023-10-08T04:55:25;17.20;99.90
30893;DHT22;17595;50.884;4.346;2023-10-08T04:57:57;17.20;99.90
30893;DHT22;17595;50.884;4.346;2023-10-08T05:00:23;17.20;99.90
30893;DHT22;17595;50.884;4.346;2023-10-08T05:03:08;17.10;99.90
30893;DHT22;17595;50.884;4.346;2023-10-08T05:05:45;17.10;99.90
30893;DHT22;17595;50.884;4.346;2023-10-08T05:08:21;17.10;99.90
30893;DHT22;17595;50.884;4.346;2023-10-08T05:10:54;17.10;99.90
30893;DHT22;17595;50.884;4.346;2023-10-08T05:13:40;17.10;99.90
30893;DHT22;17595;50.884;4.346;2023-10-08T05:16:22;17.10;99.90
30893;DHT22;17595;50.884;4.346;2023-10-08T05:19:07;17.20;99.90
30893;DHT22;17595;50.884;4.346;2023-10-08T05:21:50;17.20;99.90
30893;DHT22;17595;50.884;4.346;2023-10-08T05:24:31;17.20;99.90
30893;DHT22;17595;50.884;4.346;2023-10-08T05:27:04;17.20;99.90
30893;DHT22;17595;50.884;4.346;2023-10-08T05:30:04;17.20;99.90
30893;DHT22;17595;50.884;4.346;2023-10-08T05:32:50;17.20;99.90
30893;DHT22;17595;50.884;4.346;2023-10-08T05:35:37;17.10;99.90
30893;DHT22;17595;50.884;4.346;2023-10-08T05:38:12;17.20;99.90
30893;DHT22;17595;50.884;4.346;2023-10-08T05:40:47;17.20;99.90
30893;DHT22;17595;50.884;4.346;2023-10-08T05:43:22;17.20;99.90
30893;DHT22;17595;50.884;4.346;2023-10-08T05:46:09;17.20;99.90
30893;DHT22;17595;50.884;4.346;2023-10-08T05:51:39;17.20;99.90
30893;DHT22;17595;50.884;4.346;2023-10-08T05:54:19;17.20;99.90
30893;DHT22;17595;50.884;4.346;2023-10-08T05:56:52;17.30;99.90
30893;DHT22;17595;50.884;4.346;2023-10-08T05:59:33;17.20;99.90
30893;DHT22;17595;50.884;4.346;2023-10-08T06:02:07;17.20;99.90
30893;DHT22;17595;50.884;4.346;2023-10-08T06:04:51;17.30;99.90
30893;DHT22;17595;50.884;4.346;2023-10-08T06:07:48;17.30;99.90
30893;DHT22;17595;50.884;4.346;2023-10-08T06:10:23;17.30;99.90
30893;DHT22;17595;50.884;4.346;2023-10-08T06:15:48;17.30;99.90
30893;DHT22;17595;50.884;4.346;2023-10-08T06:18:31;17.20;99.90
30893;DHT22;17595;50.884;4.346;2023-10-08T06:20:58;17.30;99.90
30893;DHT22;17595;50.884;4.346;2023-10-08T06:23:25;17.30;99.90
30893;DHT22;17595;50.884;4.346;2023-10-08T06:25:52;17.40;99.90
30893;DHT22;17595;50.884;4.346;2023-10-08T06:28:32;17.40;99.90
30893;DHT22;17595;50.884;4.346;2023-10-08T06:31:01;17.40;99.90
30893;DHT22;17595;50.884;4.346;2023-10-08T06:33:28;17.40;99.90
30893;DHT22;17595;50.884;4.346;2023-10-08T06:35:59;17.30;99.90
30893;DHT22;17595;50.884;4.346;2023-10-08T06:38:31;17.40;99.90
30893;DHT22;17595;50.884;4.346;2023-10-08T06:40:57;17.40;99.90
30893;DHT22;17595;50.884;4.346;2023-10-08T06:43:26;17.40;99.90
30893;DHT22;17595;50.884;4.346;2023-10-08T06:45:52;17.40;99.90
30893;DHT22;17595;50.884;4.346;2023-10-08T06:48:19;17.40;99.90
30893;DHT22;17595;50.884;4.346;2023-10-08T06:50:49;17.40;99.90
30893;DHT22;17595;50.884;4.346;2023-10-08T06:53:15;17.50;99.90
30893;DHT22;17595;50.884;4.346;2023-10-08T06:55:41;17.50;99.90
30893;DHT22;17595;50.884;4.346;2023-10-08T06:58:07;17.50;99.90
30893;DHT22;17595;50.884;4.346;2023-10-08T07:00:37;17.50;99.90
30893;DHT22;17595;50.884;4.346;2023-10-08T07:03:11;17.60;99.90
30893;DHT22;17595;50.884;4.346;2023-10-08T07:05:42;17.70;99.90
30893;DHT22;17595;50.884;4.346;2023-10-08T07:08:10;17.70;99.90
30893;DHT22;17595;50.884;4.346;2023-10-08T07:10:39;17.80;99.90
30893;DHT22;17595;50.884;4.346;2023-10-08T07:13:07;17.80;99.90
30893;DHT22;17595;50.884;4.346;2023-10-08T07:15:34;17.90;99.90
30893;DHT22;17595;50.884;4.346;2023-10-08T07:18:05;18.00;99.90
30893;DHT22;17595;50.884;4.346;2023-10-08T07:20:35;18.10;99.90
30893;DHT22;17595;50.884;4.346;2023-10-08T07:23:10;18.10;99.90
30893;DHT22;17595;50.884;4.346;2023-10-08T07:25:55;18.10;99.90
30893;DHT22;17595;50.884;4.346;2023-10-08T07:28:25;18.10;99.90
30893;DHT22;17595;50.884;4.346;2023-10-08T07:30:52;18.10;99.90
30893;DHT22;17595;50.884;4.346;2023-10-08T07:33:18;18.20;99.90
30893;DHT22;17595;50.884;4.346;2023-10-08T07:35:45;18.30;99.90
30893;DHT22;17595;50.884;4.346;2023-10-08T07:38:24;18.40;99.90
30893;DHT22;17595;50.884;4.346;2023-10-08T07:40:52;18.50;99.90
30893;DHT22;17595;50.884;4.346;2023-10-08T07:43:20;18.50;99.90
30893;DHT22;17595;50.884;4.346;2023-10-08T07:45:46;18.60;99.90
30893;DHT22;17595;50.884;4.346;2023-10-08T07:48:12;18.60;99.90
30893;DHT22;17595;50.884;4.346;2023-10-08T07:50:44;18.60;99.90
30893;DHT22;17595;50.884;4.346;2023-10-08T07:53:12;18.60;99.90
30893;DHT22;17595;50.884;4.346;2023-10-08T07:55:44;18.60;99.90
30893;DHT22;17595;50.884;4.346;2023-10-08T07:58:12;18.70;99.90
30893;DHT22;17595;50.884;4.346;2023-10-08T08:00:40;18.70;99.90
30893;DHT22;17595;50.884;4.346;2023-10-08T08:03:06;18.70;99.90
30893;DHT22;17595;50.884;4.346;2023-10-08T08:05:32;18.70;99.90
30893;DHT22;17595;50.884;4.346;2023-10-08T08:08:03;18.70;99.90
30893;DHT22;17595;50.884;4.346;2023-10-08T08:10:34;18.70;99.90
30893;DHT22;17595;50.884;4.346;2023-10-08T08:13:04;18.70;99.90
30893;DHT22;17595;50.884;4.346;2023-10-08T08:15:34;18.70;99.90
30893;DHT22;17595;50.884;4.346;2023-10-08T08:18:05;18.70;99.90
30893;DHT22;17595;50.884;4.346;2023-10-08T08:20:31;18.70;99.90
30893;DHT22;17595;50.884;4.346;2023-10-08T08:23:07;18.60;99.90
30893;DHT22;17595;50.884;4.346;2023-10-08T08:25:39;18.70;99.90
30893;DHT22;17595;50.884;4.346;2023-10-08T08:28:12;18.70;99.90
30893;DHT22;17595;50.884;4.346;2023-10-08T08:30:47;18.80;99.90
30893;DHT22;17595;50.884;4.346;2023-10-08T08:33:13;18.70;99.90
30893;DHT22;17595;50.884;4.346;2023-10-08T08:35:47;18.80;99.90
30893;DHT22;17595;50.884;4.346;2023-10-08T08:38:13;18.90;99.90
30893;DHT22;17595;50.884;4.346;2023-10-08T08:40:39;19.00;99.90
30893;DHT22;17595;50.884;4.346;2023-10-08T08:43:05;19.00;99.90
30893;DHT22;17595;50.884;4.346;2023-10-08T08:45:31;19.00;99.90
30893;DHT22;17595;50.884;4.346;2023-10-08T08:47:59;19.10;99.90
30893;DHT22;17595;50.884;4.346;2023-10-08T08:50:25;19.30;99.90
30893;DHT22;17595;50.884;4.346;2023-10-08T08:52:54;19.30;99.90
30893;DHT22;17595;50.884;4.346;2023-10-08T08:55:21;19.40;99.90
30893;DHT22;17595;50.884;4.346;2023-10-08T08:57:49;19.40;99.90
30893;DHT22;17595;50.884;4.346;2023-10-08T09:00:17;19.50;99.90
30893;DHT22;17595;50.884;4.346;2023-10-08T09:02:44;19.40;99.90
30893;DHT22;17595;50.884;4.346;2023-10-08T09:05:10;19.50;99.90
30893;DHT22;17595;50.884;4.346;2023-10-08T09:10:36;19.50;99.90
30893;DHT22;17595;50.884;4.346;2023-10-08T09:13:22;19.50;99.90
30893;DHT22;17595;50.884;4.346;2023-10-08T09:15:51;19.40;99.90
30893;DHT22;17595;50.884;4.346;2023-10-08T09:18:17;19.40;99.90
30893;DHT22;17595;50.884;4.346;2023-10-08T09:20:43;19.50;99.90
30893;DHT22;17595;50.884;4.346;2023-10-08T09:23:11;19.60;99.90
30893;DHT22;17595;50.884;4.346;2023-10-08T09:25:41;19.40;99.90
30893;DHT22;17595;50.884;4.346;2023-10-08T09:28:07;19.40;99.90
30893;DHT22;17595;50.884;4.346;2023-10-08T09:30:34;19.40;99.90
30893;DHT22;17595;50.884;4.346;2023-10-08T09:33:05;19.40;99.90
30893;DHT22;17595;50.884;4.346;2023-10-08T09:35:32;19.40;99.90
30893;DHT22;17595;50.884;4.346;2023-10-08T09:38:06;19.30;99.90
30893;DHT22;17595;50.884;4.346;2023-10-08T09:40:36;19.00;99.90
30893;DHT22;17595;50.884;4.346;2023-10-08T09:43:03;18.90;99.90
30893;DHT22;17595;50.884;4.346;2023-10-08T09:45:30;18.90;99.90
30893;DHT22;17595;50.884;4.346;2023-10-08T09:47:56;18.90;99.90
30893;DHT22;17595;50.884;4.346;2023-10-08T09:50:29;18.90;99.90
30893;DHT22;17595;50.884;4.346;2023-10-08T09:53:10;18.90;99.90
30893;DHT22;17595;50.884;4.346;2023-10-08T09:55:45;19.00;99.90
30893;DHT22;17595;50.884;4.346;2023-10-08T09:58:14;19.00;99.90
30893;DHT22;17595;50.884;4.346;2023-10-08T10:00:42;19.10;99.90
30893;DHT22;17595;50.884;4.346;2023-10-08T10:03:10;19.20;99.90
30893;DHT22;17595;50.884;4.346;2023-10-08T10:05:38;19.30;99.90
30893;DHT22;17595;50.884;4.346;2023-10-08T10:08:04;19.40;99.90
30893;DHT22;17595;50.884;4.346;2023-10-08T10:10:36;19.50;99.90
30893;DHT22;17595;50.884;4.346;2023-10-08T10:13:09;19.60;99.90
30893;DHT22;17595;50.884;4.346;2023-10-08T10:15:39;19.40;99.90
30893;DHT22;17595;50.884;4.346;2023-10-08T10:18:13;19.30;99.90
30893;DHT22;17595;50.884;4.346;2023-10-08T10:20:43;19.40;99.90
30893;DHT22;17595;50.884;4.346;2023-10-08T10:26:36;19.60;99.90
30893;DHT22;17595;50.884;4.346;2023-10-08T10:34:11;19.70;99.90
30893;DHT22;17595;50.884;4.346;2023-10-08T10:36:41;19.60;99.90
30893;DHT22;17595;50.884;4.346;2023-10-08T10:39:07;19.60;99.90
30893;DHT22;17595;50.884;4.346;2023-10-08T10:41:45;19.40;99.90
30893;DHT22;17595;50.884;4.346;2023-10-08T10:44:20;19.60;99.90
30893;DHT22;17595;50.884;4.346;2023-10-08T10:46:46;19.60;99.90
30893;DHT22;17595;50.884;4.346;2023-10-08T10:49:38;19.60;99.90
30893;DHT22;17595;50.884;4.346;2023-10-08T10:52:28;19.70;99.90
30893;DHT22;17595;50.884;4.346;2023-10-08T10:55:02;19.70;99.90
30893;DHT22;17595;50.884;4.346;2023-10-08T10:57:41;19.80;99.90
30893;DHT22;17595;50.884;4.346;2023-10-08T11:00:08;19.90;99.90
30893;DHT22;17595;50.884;4.346;2023-10-08T11:03:12;20.00;99.90
30893;DHT22;17595;50.884;4.346;2023-10-08T11:05:46;20.00;99.90
30893;DHT22;17595;50.884;4.346;2023-10-08T11:08:17;20.00;99.90
30893;DHT22;17595;50.884;4.346;2023-10-08T11:10:48;20.00;99.90
30893;DHT22;17595;50.884;4.346;2023-10-08T11:13:22;20.00;99.90
30893;DHT22;17595;50.884;4.346;2023-10-08T11:15:54;20.00;99.90
30893;DHT22;17595;50.884;4.346;2023-10-08T11:18:21;20.10;99.90
30893;DHT22;17595;50.884;4.346;2023-10-08T11:20:48;20.10;99.90
30893;DHT22;17595;50.884;4.346;2023-10-08T11:23:36;20.10;99.90
30893;DHT22;17595;50.884;4.346;2023-10-08T11:26:05;20.10;99.90
30893;DHT22;17595;50.884;4.346;2023-10-08T11:28:33;20.10;99.90
30893;DHT22;17595;50.884;4.346;2023-10-08T11:31:10;20.10;99.90
30893;DHT22;17595;50.884;4.346;2023-10-08T11:33:40;20.00;99.90
30893;DHT22;17595;50.884;4.346;2023-10-08T11:36:07;20.10;99.90
30893;DHT22;17595;50.884;4.346;2023-10-08T11:38:46;20.00;99.90
30893;DHT22;17595;50.884;4.346;2023-10-08T11:41:15;20.00;99.90
30893;DHT22;17595;50.884;4.346;2023-10-08T11:43:51;19.90;99.90
30893;DHT22;17595;50.884;4.346;2023-10-08T11:46:27;20.00;99.90
30893;DHT22;17595;50.884;4.346;2023-10-08T11:49:13;20.00;99.90
30893;DHT22;17595;50.884;4.346;2023-10-08T11:51:50;20.10;99.90
30893;DHT22;17595;50.884;4.346;2023-10-08T11:54:17;20.10;99.90
30893;DHT22;17595;50.884;4.346;2023-10-08T11:56:45;20.20;99.90
30893;DHT22;17595;50.884;4.346;2023-10-08T11:59:12;20.20;99.90
30893;DHT22;17595;50.884;4.346;2023-10-08T12:01:39;20.20;99.90
30893;DHT22;17595;50.884;4.346;2023-10-08T12:04:08;20.20;99.90
30893;DHT22;17595;50.884;4.346;2023-10-08T12:06:43;20.30;99.90
30893;DHT22;17595;50.884;4.346;2023-10-08T12:09:13;20.30;99.90
30893;DHT22;17595;50.884;4.346;2023-10-08T12:11:39;20.30;99.90
30893;DHT22;17595;50.884;4.346;2023-10-08T12:14:05;20.20;99.90
30893;DHT22;17595;50.884;4.346;2023-10-08T12:16:31;20.30;99.90
30893;DHT22;17595;50.884;4.346;2023-10-08T12:19:02;20.30;99.90
30893;DHT22;17595;50.884;4.346;2023-10-08T12:21:31;20.30;99.90
30893;DHT22;17595;50.884;4.346;2023-10-08T12:23:58;20.50;99.90
30893;DHT22;17595;50.884;4.346;2023-10-08T12:26:24;20.60;99.90
30893;DHT22;17595;50.884;4.346;2023-10-08T12:28:50;20.60;99.90
30893;DHT22;17595;50.884;4.346;2023-10-08T12:31:16;20.60;99.90
30893;DHT22;17595;50.884;4.346;2023-10-08T12:33:46;20.70;99.90
30893;DHT22;17595;50.884;4.346;2023-10-08T12:36:12;20.80;99.90
30893;DHT22;17595;50.884;4.346;2023-10-08T12:38:40;20.90;99.90
30893;DHT22;17595;50.884;4.346;2023-10-08T12:41:12;20.80;99.90
30893;DHT22;17595;50.884;4.346;2023-10-08T12:43:42;20.90;99.90
30893;DHT22;17595;50.884;4.346;2023-10-08T12:46:08;21.00;99.90
30893;DHT22;17595;50.884;4.346;2023-10-08T12:48:41;21.00;99.90
30893;DHT22;17595;50.884;4.346;2023-10-08T12:51:09;21.00;99.90
30893;DHT22;17595;50.884;4.346;2023-10-08T12:53:37;21.20;99.90
30893;DHT22;17595;50.884;4.346;2023-10-08T12:56:07;21.30;99.90
30893;DHT22;17595;50.884;4.346;2023-10-08T12:58:34;21.40;99.90
30893;DHT22;17595;50.884;4.346;2023-10-08T13:01:16;21.40;99.90
30893;DHT22;17595;50.884;4.346;2023-10-08T13:03:43;21.40;99.90
30893;DHT22;17595;50.884;4.346;2023-10-08T13:06:20;21.50;99.90
30893;DHT22;17595;50.884;4.346;2023-10-08T13:08:57;21.40;99.90
30893;DHT22;17595;50.884;4.346;2023-10-08T13:11:27;21.20;99.90
30893;DHT22;17595;50.884;4.346;2023-10-08T13:13:55;21.00;99.90
30893;DHT22;17595;50.884;4.346;2023-10-08T13:16:25;21.00;99.90
30893;DHT22;17595;50.884;4.346;2023-10-08T13:18:51;21.20;99.90
30893;DHT22;17595;50.884;4.346;2023-10-08T13:21:17;21.20;99.90
30893;DHT22;17595;50.884;4.346;2023-10-08T13:23:53;21.40;99.90
30893;DHT22;17595;50.884;4.346;2023-10-08T13:26:19;21.50;99.90
30893;DHT22;17595;50.884;4.346;2023-10-08T13:28:48;21.50;99.90
30893;DHT22;17595;50.884;4.346;2023-10-08T13:31:14;21.60;99.90
30893;DHT22;17595;50.884;4.346;2023-10-08T13:33:42;21.60;99.90
30893;DHT22;17595;50.884;4.346;2023-10-08T13:36:10;21.40;99.90
30893;DHT22;17595;50.884;4.346;2023-10-08T13:38:37;21.30;99.90
30893;DHT22;17595;50.884;4.346;2023-10-08T13:41:04;21.20;99.90
30893;DHT22;17595;50.884;4.346;2023-10-08T13:43:33;21.40;99.90
30893;DHT22;17595;50.884;4.346;2023-10-08T13:46:06;21.40;99.90
30893;DHT22;17595;50.884;4.346;2023-10-08T13:48:35;21.60;99.90
30893;DHT22;17595;50.884;4.346;2023-10-08T13:51:04;21.60;99.90
30893;DHT22;17595;50.884;4.346;2023-10-08T13:53:31;21.60;99.90
30893;DHT22;17595;50.884;4.346;2023-10-08T13:56:02;21.40;99.90
30893;DHT22;17595;50.884;4.346;2023-10-08T13:58:28;21.30;99.90
30893;DHT22;17595;50.884;4.346;2023-10-08T14:00:58;21.30;99.90
30893;DHT22;17595;50.884;4.346;2023-10-08T14:03:29;21.30;99.90
30893;DHT22;17595;50.884;4.346;2023-10-08T14:06:00;21.40;99.90
30893;DHT22;17595;50.884;4.346;2023-10-08T14:08:30;21.50;99.90
30893;DHT22;17595;50.884;4.346;2023-10-08T14:10:57;21.60;99.90
30893;DHT22;17595;50.884;4.346;2023-10-08T14:13:32;21.50;99.90
30893;DHT22;17595;50.884;4.346;2023-10-08T14:16:01;21.50;99.90
30893;DHT22;17595;50.884;4.346;2023-10-08T14:18:34;21.60;99.90
30893;DHT22;17595;50.884;4.346;2023-10-08T14:21:07;21.60;99.90
30893;DHT22;17595;50.884;4.346;2023-10-08T14:23:36;21.70;99.90
30893;DHT22;17595;50.884;4.346;2023-10-08T14:26:07;21.80;99.90
30893;DHT22;17595;50.884;4.346;2023-10-08T14:28:34;21.90;99.90
30893;DHT22;17595;50.884;4.346;2023-10-08T14:31:29;21.90;99.90
30893;DHT22;17595;50.884;4.346;2023-10-08T14:33:57;22.10;99.90
30893;DHT22;17595;50.884;4.346;2023-10-08T14:36:47;22.20;99.90
30893;DHT22;17595;50.884;4.346;2023-10-08T14:39:33;22.30;99.90
30893;DHT22;17595;50.884;4.346;2023-10-08T14:42:37;22.30;99.90
30893;DHT22;17595;50.884;4.346;2023-10-08T14:45:26;22.40;99.90
30893;DHT22;17595;50.884;4.346;2023-10-08T14:47:56;22.40;99.90
30893;DHT22;17595;50.884;4.346;2023-10-08T14:50:22;22.30;99.90
30893;DHT22;17595;50.884;4.346;2023-10-08T14:52:48;22.10;99.90
30893;DHT22;17595;50.884;4.346;2023-10-08T14:55:15;22.10;99.90
30893;DHT22;17595;50.884;4.346;2023-10-08T14:57:42;22.20;99.90
30893;DHT22;17595;50.884;4.346;2023-10-08T15:00:09;22.10;99.90
30893;DHT22;17595;50.884;4.346;2023-10-08T15:02:36;22.10;99.90
30893;DHT22;17595;50.884;4.346;2023-10-08T15:05:04;22.10;99.90
30893;DHT22;17595;50.884;4.346;2023-10-08T15:07:31;22.10;99.90
30893;DHT22;17595;50.884;4.346;2023-10-08T15:09:58;22.10;99.90
30893;DHT22;17595;50.884;4.346;2023-10-08T15:12:26;22.10;99.90
30893;DHT22;17595;50.884;4.346;2023-10-08T15:14:52;22.10;99.90
30893;DHT22;17595;50.884;4.346;2023-10-08T15:17:18;22.00;99.90
30893;DHT22;17595;50.884;4.346;2023-10-08T15:19:44;22.00;99.90
30893;DHT22;17595;50.884;4.346;2023-10-08T15:22:12;22.00;99.90
30893;DHT22;17595;50.884;4.346;2023-10-08T15:24:38;21.90;99.90
30893;DHT22;17595;50.884;4.346;2023-10-08T15:27:05;21.90;99.90
30893;DHT22;17595;50.884;4.346;2023-10-08T15:29:31;21.90;99.90
30893;DHT22;17595;50.884;4.346;2023-10-08T15:31:58;21.90;99.90
30893;DHT22;17595;50.884;4.346;2023-10-08T15:34:24;21.90;99.90
30893;DHT22;17595;50.884;4.346;2023-10-08T15:36:52;21.90;99.90
30893;DHT22;17595;50.884;4.346;2023-10-08T15:39:18;21.90;99.90
30893;DHT22;17595;50.884;4.346;2023-10-08T15:41:50;21.90;99.90
30893;DHT22;17595;50.884;4.346;2023-10-08T15:44:19;21.80;99.90
30893;DHT22;17595;50.884;4.346;2023-10-08T15:46:48;21.80;99.90
30893;DHT22;17595;50.884;4.346;2023-10-08T15:49:14;21.80;99.90
30893;DHT22;17595;50.884;4.346;2023-10-08T15:51:40;21.90;99.90
30893;DHT22;17595;50.884;4.346;2023-10-08T15:54:06;21.90;99.90
30893;DHT22;17595;50.884;4.346;2023-10-08T15:56:32;21.90;99.90
30893;DHT22;17595;50.884;4.346;2023-10-08T15:58:58;22.00;99.90
30893;DHT22;17595;50.884;4.346;2023-10-08T16:01:24;22.00;99.90
30893;DHT22;17595;50.884;4.346;2023-10-08T16:03:52;22.00;99.90
30893;DHT22;17595;50.884;4.346;2023-10-08T16:06:19;21.90;99.90
30893;DHT22;17595;50.884;4.346;2023-10-08T16:08:45;21.80;99.90
30893;DHT22;17595;50.884;4.346;2023-10-08T16:11:12;21.90;99.90